بغداد, العراق

09:33 AM AST on êèنêè 28, 2016 (GMT +0300)
Baghdad International Air | | Change Station

Elev 115 ft 33.26 °N, 44.23 °E | Updated 3 minutes ago

Clear
صافية
102 °F
Feels Like 102 °F
N
7
ريح متغير ريح from NW

هذا اليوم
High -- | Low -- °F
--% Chance of Precip.
Yesterday
High -- | Low -- °F
Precip. -- في
الضغط 29.56 في
وضوح الرؤية -9999.0 أميال
سحابات
نقطة الندى 52 °F
الرطوبة 18%
Rainfall 0.00 في
عمق الثلج Not available.
5:13 AM 7:05 PM
الهلال الأخير, 35% visible
METAR ORBI 280630Z 31006KT 270V350 CAVOK 39/11 Q1001
الضغط 29.56 في
وضوح الرؤية -9999.0 أميال
سحابات
نقطة الندى 52 °F
الرطوبة 18%
Rainfall 0.00 في
عمق الثلج Not available.
5:13 AM 7:05 PM
الهلال الأخير, 35% visible
METAR ORBI 280630Z 31006KT 270V350 CAVOK 39/11 Q1001

10-Day Weather Forecast

No radar image for this location.
×

Almanac

علم الفلك

Jul. 28, 2016 Rise Set
Actual Time
Civil Twilight
Nautical Twilight
Astronomical Twilight
قمر
Length Of Visible Light
طول الیوم
Tomorrow will be .
, % of the Moon is Illuminated

Today's Extremes

Country Highs Country Lows

Community

WunderPhotos

Upload Photos

1,928,064 photos uploaded!

WunderBlog® & News

Nearby

جودة الهواء

  جودة الهواء AQ Index Pollutant
Not available.

عمق الثلج

Station Depth Elevation

Earthquake Activity

City Distance Mag. Time & Date
Minimum magnitude displayed is 2.5.

Coastal Water Temperatures

مكان درجات الحرارة

Stations

Nearby Weather Stations

Station Location الحرارة رياح باردة نقطة الندى الرطوبة ريح Precip. Elev تحديث Type